Time;durP1;ratioP1;P1;durP2;ratioP2;P2;SDS_P1;SDS_P2;PMS_P1;PMS_P2;Temp;Humidity;BMP_temperature;BMP_pressure;BME280_temperature;BME280_humidity;BME280_pressure;Samples;Min_cycle;Max_cycle;Signal;HPM_P1;HPM_P2
2022/08/08 00:02:14;;;;;;;2.55;1.45;;;12.50;99.90;;;;;;5071222;28;20060;-81
2022/08/08 00:04:57;;;;;;;;;;;12.90;99.90;;;;;;5073365;28;20141;-82
2022/08/08 00:08:00;;;;;;;2.15;1.20;;;12.50;99.90;;;;;;5072513;28;19924;-82
2022/08/08 00:10:40;;;;;;;2.47;1.33;;;12.40;99.90;;;;;;5072659;28;20139;-82
2022/08/08 00:13:25;;;;;;;2.92;1.30;;;12.40;99.90;;;;;;5054649;28;20087;-83
2022/08/08 00:16:23;;;;;;;2.92;1.23;;;12.30;99.90;;;;;;5072616;28;20895;-82
2022/08/08 00:18:58;;;;;;;2.88;1.20;;;12.30;99.90;;;;;;5028811;28;20053;-82
2022/08/08 00:21:32;;;;;;;2.33;1.35;;;12.30;99.90;;;;;;4997191;28;20837;-83
2022/08/08 00:24:05;;;;;;;2.75;1.60;;;12.60;99.90;;;;;;5032944;28;20059;-83
2022/08/08 00:26:37;;;;;;;4.50;2.10;;;12.20;99.90;;;;;;5003546;28;20413;-83
2022/08/08 00:29:15;;;;;;;2.75;1.60;;;12.40;99.90;;;;;;5002691;28;20068;-84
2022/08/08 00:31:47;;;;;;;2.60;1.58;;;12.10;99.90;;;;;;5013800;28;20372;-82
2022/08/08 00:35:10;;;;;;;3.70;1.90;;;12.10;99.90;;;;;;4997448;28;20061;-81
2022/08/08 00:38:00;;;;;;;3.17;1.40;;;12.10;99.90;;;;;;4996614;28;20127;-82
2022/08/08 00:40:29;;;;;;;2.17;1.30;;;12.10;99.90;;;;;;5012962;28;20086;-82
2022/08/08 00:43:22;;;;;;;3.75;1.60;;;12.10;99.90;;;;;;5029295;28;20046;-81
2022/08/08 00:46:26;;;;;;;4.10;1.80;;;12.10;99.90;;;;;;5029406;28;20045;-81
2022/08/08 00:49:00;;;;;;;5.90;2.00;;;12.00;99.90;;;;;;5027111;28;20109;-81
2022/08/08 00:51:51;;;;;;;3.25;1.98;;;12.00;99.90;;;;;;5012713;28;20607;-81
2022/08/08 00:54:39;;;;;;;2.40;1.77;;;12.00;99.90;;;;;;5048786;28;20060;-81
2022/08/08 00:57:17;;;;;;;3.13;1.90;;;12.00;99.90;;;;;;5111344;28;20067;-81
2022/08/08 01:00:07;;;;;;;2.67;1.75;;;12.00;99.90;;;;;;5112365;28;20110;-81
2022/08/08 01:03:10;;;;;;;3.35;2.10;;;12.00;99.90;;;;;;5112176;28;20118;-82
2022/08/08 01:06:04;;;;;;;2.55;1.52;;;12.00;99.90;;;;;;5077340;28;20051;-81
2022/08/08 01:08:48;;;;;;;1.92;1.33;;;11.90;99.90;;;;;;5087626;28;20057;-82
2022/08/08 01:11:19;;;;;;;2.30;1.60;;;11.90;99.90;;;;;;5073702;28;20078;-82
2022/08/08 01:14:16;;;;;;;3.10;2.20;;;11.90;99.90;;;;;;5056623;28;20043;-82
2022/08/08 01:16:44;;;;;;;3.30;2.00;;;11.90;99.90;;;;;;5073660;28;20140;-83
2022/08/08 01:19:41;;;;;;;2.60;1.63;;;12.50;99.90;;;;;;5073458;28;20052;-84
2022/08/08 01:22:39;;;;;;;2.40;1.67;;;11.80;99.90;;;;;;5083588;28;20398;-83
2022/08/08 01:25:19;;;;;;;2.60;1.75;;;11.80;99.90;;;;;;5093085;28;20047;-82
2022/08/08 01:27:57;;;;;;;2.67;1.90;;;11.70;99.90;;;;;;5067291;28;20112;-83
2022/08/08 01:30:50;;;;;;;3.03;1.35;;;11.70;99.90;;;;;;5073539;28;20106;-83
2022/08/08 01:33:38;;;;;;;2.17;1.45;;;11.70;99.90;;;;;;5056864;28;20512;-83
2022/08/08 01:36:41;;;;;;;2.67;1.55;;;11.70;99.90;;;;;;5056692;28;20065;-83
2022/08/08 01:39:34;;;;;;;3.17;2.17;;;11.70;99.90;;;;;;5072560;28;20052;-81
2022/08/08 01:42:26;;;;;;;2.42;1.80;;;11.50;99.90;;;;;;5090956;28;20817;-81
2022/08/08 01:45:10;;;;;;;2.22;1.60;;;11.50;99.90;;;;;;5091360;28;20048;-82
2022/08/08 01:48:13;;;;;;;1.80;1.42;;;11.60;99.90;;;;;;5091099;28;20901;-81
2022/08/08 01:51:10;;;;;;;2.75;1.73;;;11.60;99.90;;;;;;5091302;28;20040;-82
2022/08/08 01:54:13;;;;;;;4.30;1.80;;;11.50;99.90;;;;;;5090802;28;20058;-82
2022/08/08 01:57:02;;;;;;;2.53;1.80;;;11.50;99.90;;;;;;5090441;28;20097;-81
2022/08/08 01:59:46;;;;;;;3.83;1.90;;;11.50;99.90;;;;;;5070620;28;20052;-82
2022/08/08 02:02:51;;;;;;;4.25;1.80;;;11.70;99.90;;;;;;5102390;28;20107;-82
2022/08/08 02:05:32;;;;;;;4.05;1.83;;;11.40;99.90;;;;;;5117067;28;20088;-81
2022/08/08 02:08:16;;;;;;;4.40;1.90;;;11.50;99.90;;;;;;5090216;28;20408;-80
2022/08/08 02:11:17;;;;;;;2.80;1.80;;;11.50;99.90;;;;;;5092872;28;20044;-82
2022/08/08 02:14:18;;;;;;;1.75;1.00;;;11.40;99.90;;;;;;5072689;28;20051;-81
2022/08/08 02:17:08;;;;;;;2.15;1.42;;;11.40;99.90;;;;;;5090414;28;20395;-81
2022/08/08 02:20:01;;;;;;;2.40;1.67;;;11.40;99.90;;;;;;5090687;28;20047;-81
2022/08/08 02:23:00;;;;;;;2.97;1.90;;;11.40;99.90;;;;;;5079697;28;20126;-82
2022/08/08 02:25:48;;;;;;;2.45;1.90;;;11.40;99.90;;;;;;5092454;28;20059;-82
2022/08/08 02:28:46;;;;;;;3.50;2.50;;;11.80;99.90;;;;;;5100926;28;20040;-83
2022/08/08 02:31:39;;;;;;;3.92;2.28;;;12.10;99.90;;;;;;5072912;28;20048;-81
2022/08/08 02:34:16;;;;;;;3.88;2.10;;;11.50;99.90;;;;;;5096279;28;20406;-81
2022/08/08 02:36:44;;;;;;;4.35;2.30;;;11.50;99.90;;;;;;5110456;28;20043;-82
2022/08/08 02:39:27;;;;;;;4.45;2.20;;;11.90;99.90;;;;;;5109551;28;20147;-82
2022/08/08 02:42:09;;;;;;;4.18;2.90;;;11.50;99.90;;;;;;5109415;28;20055;-83
2022/08/08 02:45:02;;;;;;;4.90;2.80;;;11.90;99.90;;;;;;5057925;28;20059;-83
2022/08/08 02:47:49;;;;;;;3.60;2.70;;;11.50;99.90;;;;;;5094667;28;20044;-82
2022/08/08 02:50:56;;;;;;;4.22;2.47;;;11.60;99.90;;;;;;5089935;28;20040;-82
2022/08/08 02:53:22;;;;;;;4.30;2.40;;;11.60;99.90;;;;;;5090322;28;20044;-81
2022/08/08 02:56:45;;;;;;;3.53;2.85;;;11.70;99.90;;;;;;5071965;28;20040;-82
2022/08/08 02:59:31;;;;;;;4.00;2.80;;;11.70;99.90;;;;;;5042357;28;20061;-82
2022/08/08 03:02:21;;;;;;;6.68;3.00;;;11.70;99.90;;;;;;5027131;28;20053;-83
2022/08/08 03:05:06;;;;;;;4.22;3.20;;;11.70;99.90;;;;;;5026988;28;20123;-84
2022/08/08 03:07:53;;;;;;;4.43;2.63;;;11.70;99.90;;;;;;5010531;28;20049;-83
2022/08/08 03:10:33;;;;;;;5.88;2.47;;;11.80;99.90;;;;;;5038878;28;20053;-82
2022/08/08 03:13:49;;;;;;;3.97;2.58;;;11.80;99.90;;;;;;5026755;28;20044;-82
2022/08/08 03:16:32;;;;;;;8.13;3.55;;;11.80;99.90;;;;;;4968254;28;20421;-81
2022/08/08 03:19:25;;;;;;;5.07;2.90;;;11.70;99.90;;;;;;4936614;28;20086;-81
2022/08/08 03:21:51;;;;;;;3.70;2.80;;;11.70;99.90;;;;;;4917219;29;20499;-81
2022/08/08 03:24:19;;;;;;;5.18;2.90;;;11.70;99.90;;;;;;4933417;29;20142;-81
2022/08/08 03:26:51;;;;;;;6.28;3.40;;;11.80;99.90;;;;;;4949739;29;20055;-80
2022/08/08 03:29:22;;;;;;;3.60;2.80;;;11.90;99.90;;;;;;4933289;29;20063;-81
2022/08/08 03:34:33;;;;;;;6.00;2.80;;;11.80;99.90;;;;;;4933618;29;20119;-82
2022/08/08 03:36:59;;;;;;;7.28;3.40;;;12.00;99.90;;;;;;4967012;28;20063;-79
2022/08/08 03:39:25;;;;;;;6.78;3.33;;;11.80;99.90;;;;;;4952423;29;20071;-81
2022/08/08 03:41:50;;;;;;;7.45;3.08;;;11.80;99.90;;;;;;4952200;29;20118;-80
2022/08/08 03:44:16;;;;;;;4.18;2.90;;;11.80;99.90;;;;;;4951986;29;20071;-80
2022/08/08 03:46:43;;;;;;;4.50;3.50;;;11.90;99.90;;;;;;4952214;29;20047;-81
2022/08/08 03:49:17;;;;;;;9.10;3.30;;;12.20;99.90;;;;;;4952525;29;20055;-81
2022/08/08 03:51:44;;;;;;;5.57;3.60;;;11.90;99.90;;;;;;4987220;28;20401;-81
2022/08/08 03:54:09;;;;;;;6.03;3.53;;;12.10;99.90;;;;;;5031008;28;20047;-80
2022/08/08 03:56:35;;;;;;;8.25;4.00;;;11.90;99.90;;;;;;5030908;28;20120;-81
2022/08/08 03:59:01;;;;;;;5.95;4.30;;;12.40;99.90;;;;;;5039241;28;20056;-80
2022/08/08 04:01:37;;;;;;;10.10;4.43;;;12.00;99.90;;;;;;5112981;28;20062;-80
2022/08/08 04:04:03;;;;;;;10.10;5.50;;;12.00;99.90;;;;;;5113783;28;20048;-81
2022/08/08 04:06:29;;;;;;;9.57;5.97;;;12.10;99.90;;;;;;5095349;28;20427;-81
2022/08/08 04:08:55;;;;;;;7.22;5.70;;;12.10;99.90;;;;;;5086469;28;20047;-81
2022/08/08 04:11:21;;;;;;;7.95;5.30;;;12.60;99.90;;;;;;5112710;28;20036;-79
2022/08/08 04:13:46;;;;;;;13.02;5.68;;;12.20;99.90;;;;;;5094377;28;20052;-82
2022/08/08 04:16:12;;;;;;;7.28;5.22;;;12.20;99.90;;;;;;5112895;28;20406;-81
2022/08/08 04:18:38;;;;;;;12.20;5.07;;;12.20;99.90;;;;;;5094418;28;20083;-81
2022/08/08 04:21:03;;;;;;;13.18;4.60;;;12.20;99.90;;;;;;5113221;28;20086;-82
2022/08/08 04:23:29;;;;;;;11.50;4.78;;;12.20;99.90;;;;;;5113174;28;20490;-82
2022/08/08 04:25:55;;;;;;;7.68;4.53;;;12.50;99.90;;;;;;5113540;28;20054;-82
2022/08/08 04:28:20;;;;;;;7.60;5.50;;;12.40;99.90;;;;;;5083499;28;20058;-83
2022/08/08 04:30:47;;;;;;;7.45;5.05;;;12.40;99.90;;;;;;5092315;28;20036;-82
2022/08/08 04:33:12;;;;;;;8.52;4.63;;;12.50;99.90;;;;;;5073622;28;20052;-82
2022/08/08 04:35:39;;;;;;;8.50;5.32;;;12.40;99.90;;;;;;5079498;28;20050;-83
2022/08/08 04:38:05;;;;;;;9.45;5.63;;;12.70;99.90;;;;;;5095205;28;20058;-82
2022/08/08 04:40:31;;;;;;;9.15;4.75;;;12.50;99.90;;;;;;5092989;28;20052;-82
2022/08/08 04:42:57;;;;;;;9.25;5.72;;;12.50;99.90;;;;;;5101434;28;20052;-82
2022/08/08 04:45:24;;;;;;;7.82;4.57;;;12.50;99.90;;;;;;5112762;28;20047;-82
2022/08/08 04:47:49;;;;;;;11.18;5.07;;;12.90;99.90;;;;;;5076966;28;20122;-82
2022/08/08 04:50:15;;;;;;;11.07;6.05;;;12.90;99.90;;;;;;5094274;28;20252;-83
2022/08/08 04:52:41;;;;;;;11.38;6.50;;;12.70;99.90;;;;;;5112661;28;20042;-83
2022/08/08 04:55:07;;;;;;;11.32;6.25;;;12.70;99.90;;;;;;5094388;28;20563;-83
2022/08/08 04:57:33;;;;;;;8.70;6.05;;;12.70;99.90;;;;;;5111998;28;20148;-83
2022/08/08 04:59:58;;;;;;;10.38;6.70;;;13.30;99.90;;;;;;5112272;28;20068;-83
2022/08/08 05:02:24;;;;;;;9.88;6.30;;;12.90;99.90;;;;;;5112097;28;20032;-83
2022/08/08 05:04:49;;;;;;;8.43;6.15;;;13.40;99.90;;;;;;5110295;28;20093;-83
2022/08/08 05:07:15;;;;;;;10.65;5.97;;;13.20;99.90;;;;;;5094072;28;20140;-84
2022/08/08 05:09:41;;;;;;;13.15;6.25;;;13.50;99.90;;;;;;5081018;28;20040;-84
2022/08/08 05:12:07;;;;;;;10.68;6.40;;;13.10;99.90;;;;;;5092636;28;20494;-84
2022/08/08 05:14:33;;;;;;;10.57;6.72;;;13.20;99.90;;;;;;5112319;28;20784;-84
2022/08/08 05:16:59;;;;;;;11.63;8.23;;;13.50;99.90;;;;;;5112438;28;20126;-83
2022/08/08 05:19:24;;;;;;;11.00;7.47;;;13.40;99.90;;;;;;5111721;28;20398;-83
2022/08/08 05:21:54;;;;;;;10.73;7.07;;;13.40;99.90;;;;;;5093825;28;20460;-83
2022/08/08 05:24:20;;;;;;;10.43;6.10;;;13.70;99.90;;;;;;5111700;28;20039;-84
2022/08/08 05:26:45;;;;;;;16.10;7.25;;;13.50;99.90;;;;;;5110406;28;20046;-84
2022/08/08 05:29:12;;;;;;;10.77;6.22;;;13.60;99.90;;;;;;5072850;28;20490;-82
2022/08/08 05:31:37;;;;;;;8.77;5.65;;;13.60;99.90;;;;;;5091426;28;20055;-83
2022/08/08 05:34:12;;;;;;;9.02;6.20;;;13.70;99.90;;;;;;5072528;28;20410;-83
2022/08/08 05:36:38;;;;;;;12.93;6.05;;;13.90;99.90;;;;;;5056364;28;20050;-83
2022/08/08 05:39:05;;;;;;;9.68;5.88;;;13.80;99.90;;;;;;5079790;28;20054;-80
2022/08/08 05:41:34;;;;;;;13.88;5.68;;;13.90;99.90;;;;;;5111211;28;20043;-83
2022/08/08 05:44:11;;;;;;;11.55;5.60;;;13.90;99.90;;;;;;5111437;28;20047;-84
2022/08/08 05:46:37;;;;;;;10.57;5.65;;;14.00;99.90;;;;;;5111031;28;20096;-83
2022/08/08 05:49:03;;;;;;;15.55;6.20;;;14.10;99.90;;;;;;5110432;28;20047;-83
2022/08/08 05:54:09;;;;;;;10.68;6.03;;;14.10;99.90;;;;;;5088803;28;20044;-82
2022/08/08 05:56:40;;;;;;;9.38;6.22;;;14.50;99.90;;;;;;5091629;28;20071;-84
2022/08/08 05:59:12;;;;;;;11.20;5.10;;;14.70;99.90;;;;;;5091626;28;20051;-84
2022/08/08 06:01:41;;;;;;;8.98;5.63;;;14.30;99.90;;;;;;5093132;28;20043;-83
2022/08/08 06:04:10;;;;;;;11.15;5.20;;;14.90;99.90;;;;;;5090395;28;20055;-83
2022/08/08 06:06:39;;;;;;;7.72;5.28;;;14.40;99.90;;;;;;5090195;28;20048;-84
2022/08/08 06:09:08;;;;;;;9.98;4.78;;;15.00;99.90;;;;;;5090312;28;20048;-83
2022/08/08 06:11:38;;;;;;;14.52;6.07;;;14.50;99.90;;;;;;5072189;28;20040;-84
2022/08/08 06:14:05;;;;;;;9.63;5.55;;;14.60;99.90;;;;;;5090458;28;20048;-84
2022/08/08 06:16:35;;;;;;;11.10;5.70;;;14.70;99.90;;;;;;5090138;28;20048;-82
2022/08/08 06:19:04;;;;;;;16.42;6.13;;;14.70;99.90;;;;;;5072519;28;20116;-83
2022/08/08 06:21:30;;;;;;;10.23;5.70;;;15.20;99.90;;;;;;5071472;28;20368;-83
2022/08/08 06:23:56;;;;;;;9.63;5.53;;;14.90;99.90;;;;;;5090490;28;20637;-84
2022/08/08 06:26:30;;;;;;;13.80;5.53;;;15.00;99.90;;;;;;5089900;28;20083;-81
2022/08/08 06:29:05;;;;;;;12.10;5.75;;;15.10;99.90;;;;;;5090119;28;20052;-83
2022/08/08 06:31:37;;;;;;;10.88;5.70;;;15.30;99.90;;;;;;5072063;28;20055;-82
2022/08/08 06:34:16;;;;;;;8.40;6.00;;;15.40;99.90;;;;;;5089800;28;20040;-83
2022/08/08 06:36:43;;;;;;;10.00;5.30;;;15.50;99.90;;;;;;5090081;28;20055;-82
2022/08/08 06:39:15;;;;;;;12.00;6.15;;;15.50;99.90;;;;;;5090040;28;20574;-81
2022/08/08 06:41:57;;;;;;;9.82;5.28;;;15.60;99.90;;;;;;5071895;28;20093;-81
2022/08/08 06:44:25;;;;;;;9.98;5.68;;;15.70;99.90;;;;;;5096481;28;20048;-83
2022/08/08 06:46:51;;;;;;;13.73;5.82;;;15.90;99.90;;;;;;5077550;28;20613;-83
2022/08/08 06:49:17;;;;;;;14.60;6.10;;;15.80;99.90;;;;;;5074529;28;20056;-83
2022/08/08 06:51:43;;;;;;;8.80;6.03;;;15.90;99.90;;;;;;5071729;28;20047;-80
2022/08/08 06:54:09;;;;;;;8.25;5.32;;;16.00;99.90;;;;;;5054978;28;20415;-82
2022/08/08 06:56:35;;;;;;;16.42;5.97;;;16.30;99.90;;;;;;5054398;28;20181;-82
2022/08/08 06:59:16;;;;;;;11.73;5.38;;;16.30;99.90;;;;;;5072670;28;20051;-82
2022/08/08 07:01:51;;;;;;;11.38;5.03;;;16.40;99.90;;;;;;5089994;28;20052;-84
2022/08/08 07:04:29;;;;;;;9.73;6.05;;;16.90;99.90;;;;;;5055063;28;20048;-78
2022/08/08 07:06:58;;;;;;;7.95;5.03;;;16.70;99.90;;;;;;5088649;28;20048;-77
2022/08/08 07:09:34;;;;;;;10.55;4.85;;;17.30;99.90;;;;;;5089734;28;20381;-77
2022/08/08 07:12:05;;;;;;;7.78;4.57;;;16.90;99.90;;;;;;5072061;28;20117;-82
2022/08/08 07:14:51;;;;;;;8.73;4.85;;;17.10;99.90;;;;;;5090035;28;20052;-82
2022/08/08 07:17:22;;;;;;;8.40;3.60;;;17.20;99.90;;;;;;5069639;28;20052;-84
2022/08/08 07:20:03;;;;;;;8.32;3.65;;;17.30;99.90;;;;;;5066053;28;20044;-81
2022/08/08 07:22:44;;;;;;;12.13;4.32;;;17.50;99.90;;;;;;5089736;28;21059;-79
2022/08/08 07:25:10;;;;;;;12.43;3.70;;;17.60;99.90;;;;;;5089792;28;20087;-76
2022/08/08 07:27:45;;;;;;;7.93;3.17;;;17.80;99.90;;;;;;5089316;28;20047;-85
2022/08/08 07:30:11;;;;;;;11.77;3.03;;;18.00;99.90;;;;;;5090205;28;20468;-83
2022/08/08 07:32:38;;;;;;;6.97;2.53;;;18.10;99.90;;;;;;5089875;28;20040;-82
2022/08/08 07:35:05;;;;;;;9.10;3.10;;;18.30;99.90;;;;;;5071312;28;20056;-81
2022/08/08 07:37:33;;;;;;;6.85;3.08;;;18.40;99.90;;;;;;5089560;28;20052;-82
2022/08/08 07:40:01;;;;;;;9.15;2.45;;;18.50;99.90;;;;;;5096746;22;20119;-87
2022/08/08 07:42:36;;;;;;;7.60;2.05;;;18.70;99.90;;;;;;5054138;28;20091;-83
2022/08/08 07:45:02;;;;;;;7.88;2.65;;;19.20;99.90;;;;;;5089512;28;20040;-83
2022/08/08 07:47:41;;;;;;;8.73;2.45;;;19.00;99.90;;;;;;5089668;28;20508;-83
2022/08/08 07:50:07;;;;;;;7.00;2.22;;;19.20;99.90;;;;;;5089574;28;20094;-88
2022/08/08 07:52:33;;;;;;;6.05;2.30;;;19.40;99.90;;;;;;5089646;28;20411;-84
2022/08/08 07:55:04;;;;;;;5.43;2.55;;;19.50;99.90;;;;;;5089131;28;20051;-84
2022/08/08 07:58:00;;;;;;;5.78;1.85;;;20.10;99.90;;;;;;5089622;28;20052;-82
2022/08/08 08:00:42;;;;;;;7.78;1.30;;;20.10;99.90;;;;;;5089144;28;20048;-86
2022/08/08 08:03:16;;;;;;;5.35;1.42;;;20.60;99.90;;;;;;5054790;28;20044;-85
2022/08/08 08:05:44;;;;;;;5.10;1.40;;;20.50;99.90;;;;;;5091383;28;20390;-82
2022/08/08 08:08:25;;;;;;;5.22;1.30;;;20.80;99.90;;;;;;5093904;28;20047;-85
2022/08/08 08:11:02;;;;;;;6.90;1.40;;;21.10;99.90;;;;;;5084584;28;20062;-84
2022/08/08 08:14:04;;;;;;;5.90;0.82;;;21.50;99.90;;;;;;5093081;28;20047;-78
2022/08/08 08:16:38;;;;;;;7.30;0.85;;;21.90;99.90;;;;;;5093214;28;20090;-79
2022/08/08 08:19:14;;;;;;;4.60;1.00;;;22.10;99.90;;;;;;5092944;28;20116;-84
2022/08/08 08:21:45;;;;;;;6.35;1.67;;;22.30;99.90;;;;;;5081382;28;20101;-80
2022/08/08 08:24:15;;;;;;;4.47;0.80;;;22.50;99.90;;;;;;5093001;28;20043;-82
2022/08/08 08:26:41;;;;;;;4.20;0.90;;;22.60;99.90;;;;;;5092781;28;20036;-85
2022/08/08 08:29:07;;;;;;;5.05;0.82;;;22.70;99.90;;;;;;5093126;28;20048;-84
2022/08/08 08:31:50;;;;;;;5.05;1.10;;;22.70;99.90;;;;;;5092285;28;20086;-88
2022/08/08 08:34:22;;;;;;;5.05;0.80;;;22.80;99.90;;;;;;5092313;28;20490;-88
2022/08/08 08:36:50;;;;;;;2.75;0.80;;;22.70;99.90;;;;;;5041621;28;20040;-88
2022/08/08 08:39:22;;;;;;;7.65;1.33;;;22.70;99.90;;;;;;5074568;28;20104;-89
2022/08/08 08:41:56;;;;;;;3.40;0.70;;;22.80;99.90;;;;;;5071871;28;20062;-88
2022/08/08 08:44:28;;;;;;;3.53;0.90;;;22.70;99.90;;;;;;5091643;28;20064;-85
2022/08/08 08:47:04;;;;;;;3.25;0.77;;;22.70;99.90;;;;;;5074272;28;20044;-85
2022/08/08 08:49:39;;;;;;;3.65;0.80;;;22.60;99.90;;;;;;5057167;28;20048;-85
2022/08/08 08:52:16;;;;;;;3.42;0.90;;;22.50;99.90;;;;;;5074110;28;20051;-84
2022/08/08 08:54:44;;;;;;;3.75;0.90;;;22.50;99.90;;;;;;5074063;28;20051;-83
2022/08/08 08:57:10;;;;;;;4.25;1.15;;;22.60;99.90;;;;;;5091305;28;20040;-81
2022/08/08 08:59:41;;;;;;;5.95;1.00;;;22.50;99.90;;;;;;5092030;28;20117;-82
2022/08/08 09:02:17;;;;;;;4.97;0.80;;;22.60;99.90;;;;;;5073581;28;20528;-81
2022/08/08 09:04:54;;;;;;;3.08;0.70;;;22.70;99.90;;;;;;5092108;28;20047;-85
2022/08/08 09:07:22;;;;;;;3.30;0.95;;;22.60;99.90;;;;;;5074088;28;20051;-84
2022/08/08 09:09:51;;;;;;;4.75;0.93;;;22.80;99.90;;;;;;5073442;28;20055;-85
2022/08/08 09:12:25;;;;;;;3.50;0.80;;;22.90;99.90;;;;;;5057032;28;20433;-85
2022/08/08 09:15:06;;;;;;;5.23;0.73;;;22.90;99.90;;;;;;5073096;28;20048;-86
2022/08/08 09:17:33;;;;;;;2.90;0.63;;;22.90;99.90;;;;;;5091774;28;20043;-80
2022/08/08 09:19:59;;;;;;;2.90;0.55;;;22.90;99.90;;;;;;5091521;28;20506;-82
2022/08/08 09:22:25;;;;;;;4.95;0.70;;;22.90;99.90;;;;;;5073161;28;20039;-80
2022/08/08 09:24:53;;;;;;;2.72;0.80;;;22.90;99.90;;;;;;5091082;28;20055;-83
2022/08/08 09:27:20;;;;;;;7.43;1.27;;;23.00;99.90;;;;;;5079339;28;20059;-78
2022/08/08 09:30:07;;;;;;;8.20;1.02;;;23.10;99.90;;;;;;5110426;28;20051;-79
2022/08/08 09:32:38;;;;;;;5.38;0.77;;;23.10;99.90;;;;;;5092281;28;20506;-79
2022/08/08 09:35:12;;;;;;;3.75;1.02;;;23.20;99.90;;;;;;5091368;28;20046;-79
2022/08/08 09:37:49;;;;;;;5.15;1.00;;;23.10;99.90;;;;;;5090989;28;20451;-83
2022/08/08 09:40:18;;;;;;;7.35;0.80;;;23.10;99.90;;;;;;5072315;28;20072;-82
2022/08/08 09:42:49;;;;;;;3.75;0.73;;;23.10;99.90;;;;;;5072282;28;20052;-80
2022/08/08 09:45:20;;;;;;;2.72;0.60;;;23.10;99.90;;;;;;5090902;28;20526;-78
2022/08/08 09:47:47;;;;;;;3.03;0.80;;;23.10;99.90;;;;;;5091175;28;20437;-78
2022/08/08 09:50:18;;;;;;;3.03;1.02;;;22.90;99.90;;;;;;5073028;28;20097;-82
2022/08/08 09:52:49;;;;;;;5.85;0.95;;;22.90;99.90;;;;;;5072716;28;20048;-80
2022/08/08 09:55:17;;;;;;;3.63;0.90;;;22.90;99.90;;;;;;5072935;28;20052;-81
2022/08/08 09:57:47;;;;;;;4.18;0.80;;;22.90;99.90;;;;;;5090934;28;20506;-81
2022/08/08 10:00:14;;;;;;;3.90;0.60;;;22.90;99.90;;;;;;5072297;28;20052;-80
2022/08/08 10:02:43;;;;;;;5.35;0.70;;;23.00;99.90;;;;;;5090842;28;20109;-81
2022/08/08 10:05:19;;;;;;;2.95;0.77;;;22.90;99.90;;;;;;5072444;28;20388;-84
2022/08/08 10:07:50;;;;;;;2.85;0.57;;;22.90;99.90;;;;;;5072283;28;20084;-84
2022/08/08 10:10:32;;;;;;;3.25;0.90;;;23.00;99.90;;;;;;5090901;28;20491;-79
2022/08/08 10:13:19;;;;;;;6.95;1.10;;;22.80;99.90;;;;;;5073002;28;20048;-81
2022/08/08 10:16:01;;;;;;;3.40;0.90;;;22.80;99.90;;;;;;5072031;28;20154;-82
2022/08/08 10:18:47;;;;;;;6.80;0.60;;;22.80;99.90;;;;;;5072493;28;20048;-83
2022/08/08 10:21:16;;;;;;;2.97;0.77;;;22.90;99.90;;;;;;5055023;28;20147;-81
2022/08/08 10:23:42;;;;;;;6.10;0.77;;;22.90;99.90;;;;;;5072227;28;20127;-79
2022/08/08 10:26:20;;;;;;;2.85;0.60;;;23.00;99.90;;;;;;5086824;28;20161;-81
2022/08/08 10:28:57;;;;;;;4.05;0.70;;;22.90;99.90;;;;;;5069860;28;20495;-83
2022/08/08 10:34:17;;;;;;;5.32;0.88;;;22.90;99.90;;;;;;5051773;28;20051;-83
2022/08/08 10:36:44;;;;;;;7.47;0.80;;;22.80;99.90;;;;;;5068629;28;20527;-81
2022/08/08 10:39:16;;;;;;;3.15;0.88;;;22.70;99.90;;;;;;5052060;28;20048;-82
2022/08/08 10:41:45;;;;;;;4.50;0.65;;;22.60;99.90;;;;;;5069937;28;20056;-83
2022/08/08 10:44:17;;;;;;;2.25;0.60;;;22.60;99.90;;;;;;5052045;28;20406;-87
2022/08/08 10:46:45;;;;;;;3.05;0.63;;;22.40;99.90;;;;;;5074556;28;20060;-91
2022/08/08 10:49:18;;;;;;;4.82;0.85;;;22.50;99.90;;;;;;5054472;28;20164;-82
2022/08/08 10:54:27;;;;;;;2.65;0.70;;;22.50;99.90;;;;;;5069839;28;20040;-81
2022/08/08 10:57:15;;;;;;;2.72;0.80;;;22.40;99.90;;;;;;5089903;28;20059;-80
2022/08/08 10:59:44;;;;;;;9.18;2.05;;;22.50;99.90;;;;;;5054399;28;20048;-83
2022/08/08 11:02:37;;;;;;;4.40;0.95;;;22.40;99.90;;;;;;5070866;28;20080;-85
2022/08/08 11:05:07;;;;;;;5.03;0.80;;;22.40;99.90;;;;;;5089742;28;20494;-81
2022/08/08 11:07:41;;;;;;;4.93;0.82;;;22.50;99.90;;;;;;5071340;28;20052;-77
2022/08/08 11:10:12;;;;;;;4.40;0.70;;;22.50;99.90;;;;;;5089730;28;20120;-77
2022/08/08 11:13:17;;;;;;;5.25;1.17;;;22.40;99.90;;;;;;5090309;28;20479;-76
2022/08/08 11:15:43;;;;;;;6.10;1.08;;;22.40;99.90;;;;;;4972029;28;20062;-81
2022/08/08 11:18:09;;;;;;;6.40;1.30;;;22.50;99.90;;;;;;4998167;28;20409;-81
2022/08/08 11:20:36;;;;;;;12.25;1.70;;;22.40;99.90;;;;;;4983903;28;20058;-76
2022/08/08 11:23:02;;;;;;;4.65;1.15;;;22.30;99.90;;;;;;4996033;28;20634;-82
2022/08/08 11:25:33;;;;;;;3.92;0.90;;;22.40;99.90;;;;;;4989334;28;20062;-81
2022/08/08 11:28:02;;;;;;;3.15;0.82;;;22.40;99.90;;;;;;4988696;28;20133;-80
2022/08/08 11:30:32;;;;;;;2.22;0.65;;;22.40;99.90;;;;;;4987693;28;20059;-86
2022/08/08 11:33:02;;;;;;;3.72;0.95;;;22.40;99.90;;;;;;4987141;28;20570;-82
2022/08/08 11:35:28;;;;;;;4.25;0.95;;;22.50;99.90;;;;;;4987536;28;20130;-81
2022/08/08 11:37:54;;;;;;;4.15;1.00;;;22.50;99.90;;;;;;4987448;28;20533;-82
2022/08/08 11:40:20;;;;;;;7.93;1.33;;;22.50;99.90;;;;;;4987590;28;20119;-84
2022/08/08 11:42:47;;;;;;;4.43;0.93;;;22.60;99.90;;;;;;4972254;28;20501;-81
2022/08/08 11:45:13;;;;;;;6.95;0.82;;;22.80;99.90;;;;;;4980013;28;20058;-84
2022/08/08 11:47:41;;;;;;;4.70;0.90;;;22.70;99.90;;;;;;4974963;28;20144;-81
2022/08/08 11:50:12;;;;;;;4.75;0.88;;;22.90;99.90;;;;;;4962379;28;20141;-81
2022/08/08 11:52:40;;;;;;;3.35;0.77;;;23.00;99.90;;;;;;5072883;28;20052;-80
2022/08/08 11:55:26;;;;;;;5.38;0.70;;;23.10;99.90;;;;;;5076546;22;20137;-83
2022/08/08 11:58:08;;;;;;;1.90;0.60;;;23.20;99.90;;;;;;5071670;28;20594;-85
2022/08/08 12:00:43;;;;;;;6.25;1.25;;;23.40;99.90;;;;;;5055040;28;20044;-88
2022/08/08 12:03:18;;;;;;;13.07;1.67;;;23.40;99.90;;;;;;5073247;28;20476;-77
2022/08/08 12:05:45;;;;;;;12.38;1.63;;;23.40;99.90;;;;;;5072632;28;20430;-83
2022/08/08 12:08:12;;;;;;;22.80;2.20;;;23.70;99.90;;;;;;5072913;28;20044;-81
2022/08/08 12:10:51;;;;;;;352.60;18.30;;;24.00;99.90;;;;;;5073166;28;20059;-82
2022/08/08 12:13:22;;;;;;;298.65;15.63;;;24.00;99.90;;;;;;5073123;28;20072;-81
2022/08/08 12:15:48;;;;;;;12.60;1.20;;;24.10;99.90;;;;;;5058502;28;20052;-79
2022/08/08 12:18:26;;;;;;;79.95;5.63;;;24.00;99.90;;;;;;5082231;28;20052;-76
2022/08/08 12:20:53;;;;;;;12.73;0.93;;;24.20;99.90;;;;;;5081393;28;20053;-81
2022/08/08 12:23:32;;;;;;;49.53;2.97;;;24.40;99.90;;;;;;5077609;28;20115;-78
2022/08/08 12:26:09;;;;;;;2.58;0.88;;;24.20;99.90;;;;;;5072758;28;20547;-79
2022/08/08 12:28:34;;;;;;;4.90;0.95;;;24.20;99.90;;;;;;5073537;28;20059;-81
2022/08/08 12:31:08;;;;;;;5.15;0.98;;;24.00;99.90;;;;;;5072593;28;20049;-83
2022/08/08 12:33:34;;;;;;;2.60;0.60;;;24.00;99.90;;;;;;5071231;28;20045;-80
2022/08/08 12:36:10;;;;;;;59.22;4.25;;;23.90;99.90;;;;;;5072284;28;20052;-77
2022/08/08 12:38:50;;;;;;;123.43;7.05;;;23.80;99.90;;;;;;5072464;28;20047;-81
2022/08/08 12:41:16;;;;;;;76.00;4.75;;;23.90;99.90;;;;;;5072148;28;20090;-80
2022/08/08 12:43:41;;;;;;;26.83;1.10;;;23.80;99.90;;;;;;5072207;28;20452;-83
2022/08/08 12:46:21;;;;;;;21.00;1.50;;;23.90;99.90;;;;;;5070839;28;20114;-83
2022/08/08 12:48:58;;;;;;;21.10;1.33;;;23.90;99.90;;;;;;5068337;28;20048;-92
2022/08/08 12:51:24;;;;;;;27.73;1.38;;;24.00;99.90;;;;;;5070714;28;20399;-81
2022/08/08 12:54:00;;;;;;;11.57;0.70;;;24.10;99.90;;;;;;5055912;28;20067;-78
2022/08/08 12:56:37;;;;;;;4.03;0.90;;;24.10;99.90;;;;;;5070301;28;20055;-86
2022/08/08 12:59:26;;;;;;;1.55;0.40;;;24.60;99.90;;;;;;5072210;28;20518;-84
2022/08/08 13:01:57;;;;;;;9.55;0.57;;;24.70;99.90;;;;;;5072260;28;20048;-81
2022/08/08 13:04:25;;;;;;;23.20;1.02;;;24.80;99.40;;;;;;5071843;28;20052;-85
2022/08/08 13:07:13;;;;;;;2.45;0.50;;;24.80;99.90;;;;;;5071361;28;20123;-88
2022/08/08 13:09:41;;;;;;;3.78;0.50;;;24.70;99.00;;;;;;5071485;28;20056;-83
2022/08/08 13:12:28;;;;;;;4.22;0.60;;;24.70;99.70;;;;;;5071537;28;20071;-85
2022/08/08 13:14:55;;;;;;;3.92;0.75;;;24.70;99.60;;;;;;5071400;28;20076;-82
2022/08/08 13:17:34;;;;;;;2.38;0.50;;;24.70;99.90;;;;;;5071471;28;20076;-86
2022/08/08 13:20:22;;;;;;;3.53;0.95;;;24.40;99.90;;;;;;5071461;28;20055;-83
2022/08/08 13:22:49;;;;;;;4.20;0.80;;;24.60;99.80;;;;;;5070858;28;20048;-86
2022/08/08 13:25:20;;;;;;;2.50;0.63;;;24.50;99.90;;;;;;5071264;28;20510;-80
2022/08/08 13:27:53;;;;;;;4.45;0.68;;;24.50;99.80;;;;;;5071260;28;20085;-82
2022/08/08 13:30:24;;;;;;;6.45;1.00;;;24.40;99.40;;;;;;5071306;28;20044;-82
2022/08/08 13:32:58;;;;;;;3.55;0.57;;;24.30;99.60;;;;;;5071167;28;20060;-82
2022/08/08 13:35:27;;;;;;;1.52;0.43;;;24.50;99.90;;;;;;5070161;28;20084;-86
2022/08/08 13:38:04;;;;;;;3.40;0.63;;;24.40;99.90;;;;;;5070723;28;20056;-88